createdAt,value
2023-02-09T00:00:02.663Z,40.40
2023-02-09T00:00:48.331Z,40.80
2023-02-09T00:01:25.385Z,40.36
2023-02-09T00:01:57.648Z,40.50
2023-02-09T00:02:29.988Z,40.55
2023-02-09T00:03:04.884Z,40.87
2023-02-09T00:03:37.497Z,40.36
2023-02-09T00:04:09.854Z,40.75
2023-02-09T00:04:45.221Z,40.52
2023-02-09T00:05:17.532Z,40.75
2023-02-09T00:05:49.786Z,40.32
2023-02-09T00:06:26.380Z,40.76
2023-02-09T00:07:00.632Z,40.74
2023-02-09T00:07:33.032Z,40.71
2023-02-09T00:08:07.972Z,40.36
2023-02-09T00:08:40.301Z,40.38
2023-02-09T00:09:12.543Z,40.33
2023-02-09T00:09:47.394Z,40.31
2023-02-09T00:10:19.729Z,40.70
2023-02-09T00:10:54.601Z,40.21
2023-02-09T00:11:43.532Z,40.30
2023-02-09T00:12:30.789Z,40.33
2023-02-09T00:13:18.073Z,40.61
2023-02-09T00:13:52.920Z,40.69
2023-02-09T00:14:25.629Z,40.36
2023-02-09T00:14:58.300Z,40.47
2023-02-09T00:15:33.205Z,40.94
2023-02-09T00:16:06.180Z,40.40
2023-02-09T00:16:38.533Z,40.47
2023-02-09T00:17:13.659Z,40.98
2023-02-09T00:17:45.896Z,40.52
2023-02-09T00:18:18.265Z,40.59
2023-02-09T00:18:53.071Z,40.83
2023-02-09T00:19:25.317Z,40.71
2023-02-09T00:19:57.595Z,40.67
2023-02-09T00:20:32.456Z,40.79
2023-02-09T00:21:06.588Z,40.51
2023-02-09T00:21:39.175Z,40.87
2023-02-09T00:22:14.019Z,40.69
2023-02-09T00:22:46.232Z,40.93
2023-02-09T00:23:18.448Z,40.83
2023-02-09T00:23:53.288Z,40.72
2023-02-09T00:24:25.543Z,40.91
2023-02-09T00:24:57.770Z,40.57
2023-02-09T00:25:32.620Z,40.71
2023-02-09T00:26:09.656Z,40.58
2023-02-09T00:26:42.500Z,40.86
2023-02-09T00:27:17.407Z,40.69
2023-02-09T00:27:49.658Z,41.00
2023-02-09T00:28:24.753Z,40.87
2023-02-09T00:28:57.216Z,40.67
2023-02-09T00:29:29.598Z,40.97
2023-02-09T00:30:04.679Z,40.70
2023-02-09T00:30:37.729Z,40.89
2023-02-09T00:31:11.464Z,40.81
2023-02-09T00:31:48.301Z,40.62
2023-02-09T00:32:20.593Z,40.42
2023-02-09T00:32:52.952Z,40.69
2023-02-09T00:33:28.328Z,40.58
2023-02-09T00:34:01.022Z,40.73
2023-02-09T00:34:33.278Z,40.52
2023-02-09T00:35:10.039Z,40.78
2023-02-09T00:35:42.891Z,40.65
2023-02-09T00:36:15.739Z,40.84
2023-02-09T00:36:50.594Z,40.96
2023-02-09T00:37:22.838Z,40.63
2023-02-09T00:37:55.117Z,40.64
2023-02-09T00:38:30.004Z,40.94
2023-02-09T00:39:02.439Z,41.01
2023-02-09T00:39:34.699Z,40.81
2023-02-09T00:40:10.725Z,40.60
2023-02-09T00:40:43.639Z,40.77
2023-02-09T00:41:39.054Z,40.79
2023-02-09T00:42:13.933Z,40.69
2023-02-09T00:42:47.396Z,40.73
2023-02-09T00:43:19.656Z,40.88
2023-02-09T00:43:54.470Z,40.59
2023-02-09T00:44:27.042Z,40.83
2023-02-09T00:44:59.272Z,40.88
2023-02-09T00:45:34.380Z,40.90
2023-02-09T00:46:07.121Z,40.98
2023-02-09T00:46:39.422Z,40.50
2023-02-09T00:47:14.262Z,40.93
2023-02-09T00:47:46.750Z,40.96
2023-02-09T00:48:19.177Z,40.76
2023-02-09T00:48:54.024Z,40.78
2023-02-09T00:49:26.333Z,40.81
2023-02-09T00:50:01.167Z,40.92
2023-02-09T00:50:34.337Z,40.58
2023-02-09T00:51:06.608Z,40.68
2023-02-09T00:51:43.832Z,40.58
2023-02-09T00:52:16.082Z,40.84
2023-02-09T00:52:48.321Z,41.00
2023-02-09T00:53:25.149Z,40.79
2023-02-09T00:53:57.395Z,40.84
2023-02-09T00:54:29.666Z,41.00
2023-02-09T00:55:04.694Z,40.86
2023-02-09T00:55:36.943Z,40.67
2023-02-09T00:56:09.165Z,40.65
2023-02-09T00:56:46.648Z,40.89
2023-02-09T00:57:18.954Z,40.60
2023-02-09T00:57:51.192Z,40.69
2023-02-09T00:58:26.080Z,40.67
2023-02-09T00:58:59.326Z,40.94
2023-02-09T00:59:33.775Z,40.74
2023-02-09T01:00:10.700Z,40.98
2023-02-09T01:00:43.201Z,41.02
2023-02-09T01:01:15.705Z,40.85
2023-02-09T01:01:50.556Z,41.12
2023-02-09T01:02:22.788Z,41.15
2023-02-09T01:02:59.439Z,41.03
2023-02-09T01:03:31.705Z,40.91
2023-02-09T01:04:04.290Z,41.10
2023-02-09T01:04:40.930Z,41.07
2023-02-09T01:05:13.289Z,41.15
2023-02-09T01:05:45.560Z,40.89
2023-02-09T01:06:20.451Z,41.08
2023-02-09T01:06:52.670Z,40.76
2023-02-09T01:07:27.672Z,40.96
2023-02-09T01:07:59.956Z,40.93
2023-02-09T01:08:32.272Z,40.76
2023-02-09T01:09:07.203Z,40.98
2023-02-09T01:09:39.424Z,40.97
2023-02-09T01:10:12.655Z,41.12
2023-02-09T01:10:48.262Z,40.75
2023-02-09T01:11:20.660Z,40.74
2023-02-09T01:11:56.386Z,40.69
2023-02-09T01:12:31.312Z,41.05
2023-02-09T01:13:03.583Z,41.13
2023-02-09T01:13:35.868Z,40.80
2023-02-09T01:14:12.671Z,40.62
2023-02-09T01:14:44.900Z,40.83
2023-02-09T01:15:17.231Z,41.00
2023-02-09T01:15:52.272Z,40.90
2023-02-09T01:16:25.282Z,40.98
2023-02-09T01:16:57.602Z,40.94
2023-02-09T01:17:33.989Z,40.60
2023-02-09T01:18:07.702Z,40.87
2023-02-09T01:18:40.371Z,41.25
2023-02-09T01:19:15.963Z,41.18
2023-02-09T01:19:52.029Z,41.05
2023-02-09T01:20:24.975Z,40.74
2023-02-09T01:20:59.805Z,41.08
2023-02-09T01:21:32.267Z,41.10
2023-02-09T01:22:04.952Z,41.01
2023-02-09T01:22:40.395Z,40.99
2023-02-09T01:23:12.803Z,40.79
2023-02-09T01:23:45.432Z,41.13
2023-02-09T01:24:17.703Z,40.95
2023-02-09T01:24:52.585Z,41.10
2023-02-09T01:25:24.834Z,41.00
2023-02-09T01:26:03.795Z,40.69
2023-02-09T01:26:38.688Z,40.82
2023-02-09T01:27:13.592Z,41.03
2023-02-09T01:27:45.903Z,40.81
2023-02-09T01:28:20.832Z,41.15
2023-02-09T01:28:54.190Z,41.11
2023-02-09T01:29:26.477Z,41.00
2023-02-09T01:30:01.559Z,41.06
2023-02-09T01:30:34.793Z,40.70
2023-02-09T01:31:18.588Z,41.25
2023-02-09T01:31:53.680Z,40.99
2023-02-09T01:32:25.994Z,40.74
2023-02-09T01:32:58.245Z,40.89
2023-02-09T01:33:33.308Z,41.01
2023-02-09T01:34:05.626Z,40.74
2023-02-09T01:34:38.330Z,41.20
2023-02-09T01:35:13.840Z,40.82
2023-02-09T01:35:46.102Z,40.76
2023-02-09T01:36:18.403Z,41.00
2023-02-09T01:36:53.232Z,40.81
2023-02-09T01:37:25.903Z,41.08
2023-02-09T01:37:58.152Z,41.13
2023-02-09T01:38:32.998Z,41.17
2023-02-09T01:39:05.564Z,41.01
2023-02-09T01:39:42.977Z,40.81
2023-02-09T01:40:15.510Z,41.06
2023-02-09T01:40:48.293Z,41.25
2023-02-09T01:41:23.212Z,41.22
2023-02-09T01:41:55.655Z,40.93
2023-02-09T01:42:30.576Z,40.85
2023-02-09T01:43:06.488Z,40.79
2023-02-09T01:43:56.100Z,41.00
2023-02-09T01:45:00.928Z,40.79
2023-02-09T01:45:36.643Z,41.19
2023-02-09T01:46:11.568Z,40.91
2023-02-09T01:46:44.360Z,40.81
2023-02-09T01:47:19.008Z,41.22
2023-02-09T01:47:57.938Z,41.07
2023-02-09T01:48:31.272Z,41.07
2023-02-09T01:49:06.931Z,41.20
2023-02-09T01:49:41.922Z,41.17
2023-02-09T01:50:15.209Z,40.80
2023-02-09T01:50:54.358Z,40.91
2023-02-09T01:51:26.850Z,40.78
2023-02-09T01:52:01.919Z,41.24
2023-02-09T01:52:36.852Z,41.01
2023-02-09T01:53:09.717Z,41.27
2023-02-09T01:53:43.090Z,41.31
2023-02-09T01:54:20.516Z,41.15
2023-02-09T01:54:55.435Z,40.69
2023-02-09T01:55:28.860Z,40.81
2023-02-09T01:56:07.565Z,41.23
2023-02-09T01:56:42.022Z,40.97
2023-02-09T01:57:16.123Z,40.96
2023-02-09T01:57:56.240Z,40.85
2023-02-09T01:58:28.572Z,41.01
2023-02-09T01:59:00.823Z,41.16
2023-02-09T01:59:36.531Z,41.11
2023-02-09T02:00:11.506Z,41.30
2023-02-09T02:00:49.872Z,41.34
2023-02-09T02:01:22.413Z,40.95
2023-02-09T02:01:54.752Z,41.13
2023-02-09T02:02:29.787Z,40.92
2023-02-09T02:03:04.985Z,40.93
2023-02-09T02:03:37.233Z,41.00
2023-02-09T02:04:12.192Z,41.06
2023-02-09T02:04:45.250Z,40.99
2023-02-09T02:05:18.556Z,41.22
2023-02-09T02:05:55.703Z,40.85
2023-02-09T02:06:28.030Z,41.10
2023-02-09T02:07:07.149Z,41.20
2023-02-09T02:07:45.151Z,40.90
2023-02-09T02:08:21.125Z,40.98
2023-02-09T02:08:59.306Z,40.99
2023-02-09T02:09:31.580Z,41.21
2023-02-09T02:10:04.517Z,40.87
2023-02-09T02:10:39.402Z,40.88
2023-02-09T02:11:13.245Z,41.22
2023-02-09T02:11:47.795Z,41.15
2023-02-09T02:12:22.887Z,40.96
2023-02-09T02:12:58.170Z,40.97
2023-02-09T02:13:30.419Z,40.96
2023-02-09T02:14:05.277Z,41.11
2023-02-09T02:14:39.948Z,41.13
2023-02-09T02:15:12.403Z,41.15
2023-02-09T02:15:56.713Z,41.08
2023-02-09T02:16:41.556Z,40.92
2023-02-09T02:17:37.237Z,41.21
2023-02-09T02:18:17.988Z,41.26
2023-02-09T02:19:05.818Z,41.22
2023-02-09T02:20:07.274Z,41.15
2023-02-09T02:21:16.274Z,41.10
2023-02-09T02:22:14.850Z,40.97
2023-02-09T02:23:05.027Z,41.27
2023-02-09T02:23:44.719Z,40.93
2023-02-09T02:24:58.508Z,41.22
2023-02-09T02:26:03.079Z,40.94
2023-02-09T02:26:48.808Z,40.83
2023-02-09T02:27:30.575Z,40.91
2023-02-09T02:28:20.535Z,41.23
2023-02-09T02:29:22.401Z,40.98
2023-02-09T02:30:20.181Z,41.01
2023-02-09T02:31:07.610Z,41.15
2023-02-09T02:32:10.133Z,41.15
2023-02-09T02:32:55.869Z,41.39
2023-02-09T02:33:35.111Z,41.27
2023-02-09T02:34:09.726Z,41.07
2023-02-09T02:34:48.636Z,40.91
2023-02-09T02:35:27.848Z,40.85
2023-02-09T02:36:06.420Z,41.02
2023-02-09T02:36:48.093Z,41.28
2023-02-09T02:37:38.687Z,41.01
2023-02-09T02:38:20.099Z,41.08
2023-02-09T02:38:55.255Z,41.12
2023-02-09T02:39:32.740Z,41.11
2023-02-09T02:40:16.285Z,41.12
2023-02-09T02:40:55.382Z,41.23
2023-02-09T02:41:53.709Z,41.06
2023-02-09T02:42:47.560Z,41.24
2023-02-09T02:43:24.272Z,40.74
2023-02-09T02:44:05.811Z,41.17
2023-02-09T02:44:40.987Z,41.25
2023-02-09T02:45:21.355Z,40.89
2023-02-09T02:46:00.723Z,40.81
2023-02-09T02:46:36.199Z,40.80
2023-02-09T02:47:15.776Z,41.09
2023-02-09T02:47:54.499Z,41.13
2023-02-09T02:48:32.791Z,40.80
2023-02-09T02:49:10.969Z,40.89
2023-02-09T02:49:45.012Z,41.23
2023-02-09T02:50:22.473Z,41.24
2023-02-09T02:51:00.508Z,41.03
2023-02-09T02:51:36.051Z,41.05
2023-02-09T02:52:10.099Z,41.21
2023-02-09T02:52:48.180Z,41.33
2023-02-09T02:53:23.865Z,41.16
2023-02-09T02:54:00.852Z,41.15
2023-02-09T02:54:35.715Z,40.76
2023-02-09T02:55:10.401Z,41.30
2023-02-09T02:55:46.124Z,41.19
2023-02-09T02:56:21.182Z,41.23
2023-02-09T02:56:57.007Z,41.03
2023-02-09T02:57:34.279Z,41.01
2023-02-09T02:58:08.620Z,40.78
2023-02-09T02:58:42.160Z,41.25
2023-02-09T02:59:20.803Z,41.30
2023-02-09T02:59:56.071Z,40.88
2023-02-09T03:00:31.241Z,40.93
2023-02-09T03:01:07.488Z,41.23
2023-02-09T03:01:41.660Z,39.97
2023-02-09T03:02:20.178Z,40.91
2023-02-09T03:02:56.805Z,40.92
2023-02-09T03:03:32.723Z,40.96
2023-02-09T03:04:08.324Z,41.28
2023-02-09T03:04:41.258Z,40.93
2023-02-09T03:05:14.346Z,41.01
2023-02-09T03:05:50.554Z,41.13
2023-02-09T03:06:22.856Z,41.18
2023-02-09T03:06:55.106Z,41.44
2023-02-09T03:07:30.101Z,41.71
2023-02-09T03:08:02.318Z,41.92
2023-02-09T03:08:50.177Z,41.50
2023-02-09T03:09:24.996Z,41.82
2023-02-09T03:09:57.694Z,41.60
2023-02-09T03:10:34.637Z,41.80
2023-02-09T03:11:09.468Z,41.73
2023-02-09T03:11:45.788Z,41.27
2023-02-09T03:12:24.515Z,41.53
2023-02-09T03:13:08.139Z,41.45
2023-02-09T03:13:50.412Z,41.17
2023-02-09T03:14:33.163Z,41.34
2023-02-09T03:15:15.390Z,41.01
2023-02-09T03:15:59.100Z,41.15
2023-02-09T03:16:38.778Z,41.07
2023-02-09T03:17:23.075Z,41.05
2023-02-09T03:17:59.978Z,41.17
2023-02-09T03:18:39.100Z,40.93
2023-02-09T03:19:25.984Z,41.05
2023-02-09T03:20:04.299Z,40.88
2023-02-09T03:20:43.117Z,41.30
2023-02-09T03:21:17.588Z,41.18
2023-02-09T03:21:54.915Z,41.03
2023-02-09T03:22:31.763Z,41.08
2023-02-09T03:23:04.882Z,41.37
2023-02-09T03:23:44.507Z,41.93
2023-02-09T03:24:23.209Z,41.94
2023-02-09T03:25:00.796Z,41.76
2023-02-09T03:25:40.202Z,41.80
2023-02-09T03:26:20.656Z,41.63
2023-02-09T03:26:56.760Z,41.41
2023-02-09T03:27:35.101Z,41.54
2023-02-09T03:28:09.714Z,40.96
2023-02-09T03:28:43.867Z,41.03
2023-02-09T03:29:20.283Z,40.27
2023-02-09T03:29:55.439Z,40.26
2023-02-09T03:30:27.822Z,40.02
2023-02-09T03:31:03.077Z,40.38
2023-02-09T03:31:35.650Z,40.26
2023-02-09T03:32:10.647Z,40.21
2023-02-09T03:32:46.841Z,39.96
2023-02-09T03:33:21.160Z,40.32
2023-02-09T03:33:56.103Z,39.97
2023-02-09T03:34:28.418Z,40.16
2023-02-09T03:35:00.843Z,39.90
2023-02-09T03:35:40.261Z,39.83
2023-02-09T03:36:15.897Z,39.91
2023-02-09T03:36:54.251Z,40.05
2023-02-09T03:37:26.671Z,39.50
2023-02-09T03:37:58.890Z,39.64
2023-02-09T03:38:33.735Z,39.69
2023-02-09T03:39:06.264Z,39.43
2023-02-09T03:39:38.542Z,39.62
2023-02-09T03:40:13.995Z,39.76
2023-02-09T03:40:47.019Z,39.25
2023-02-09T03:41:19.368Z,39.36
2023-02-09T03:41:54.227Z,39.60
2023-02-09T03:42:26.485Z,39.60
2023-02-09T03:42:58.725Z,39.31
2023-02-09T03:43:45.775Z,39.46
2023-02-09T03:44:26.914Z,39.51
2023-02-09T03:45:01.767Z,39.46
2023-02-09T03:45:33.980Z,39.07
2023-02-09T03:46:06.260Z,39.00
2023-02-09T03:46:38.563Z,39.10
2023-02-09T03:47:13.515Z,38.99
2023-02-09T03:47:48.506Z,39.24
2023-02-09T03:48:20.728Z,39.41
2023-02-09T03:48:52.982Z,39.41
2023-02-09T03:49:28.567Z,38.85
2023-02-09T03:50:01.020Z,39.17
2023-02-09T03:50:33.446Z,38.90
2023-02-09T03:51:09.337Z,39.04
2023-02-09T03:51:41.888Z,38.86
2023-02-09T03:52:15.641Z,38.95
2023-02-09T03:52:50.813Z,38.64
2023-02-09T03:53:23.042Z,39.12
2023-02-09T03:53:55.318Z,39.14
2023-02-09T03:54:30.410Z,38.90
2023-02-09T03:55:03.460Z,38.82
2023-02-09T03:55:37.269Z,38.73
2023-02-09T03:56:12.111Z,39.04
2023-02-09T03:56:44.338Z,38.70
2023-02-09T03:57:16.591Z,38.82
2023-02-09T03:57:51.405Z,38.52
2023-02-09T03:58:25.644Z,38.83
2023-02-09T03:58:57.894Z,38.69
2023-02-09T03:59:35.492Z,38.96
2023-02-09T04:00:09.858Z,39.07
2023-02-09T04:00:45.010Z,38.81
2023-02-09T04:01:20.477Z,38.90
2023-02-09T04:01:53.816Z,38.65
2023-02-09T04:02:26.116Z,38.76
2023-02-09T04:03:03.814Z,38.57
2023-02-09T04:03:36.678Z,38.60
2023-02-09T04:04:09.051Z,38.47
2023-02-09T04:04:43.902Z,38.65
2023-02-09T04:05:16.611Z,38.51
2023-02-09T04:05:48.992Z,38.70
2023-02-09T04:06:24.202Z,38.61
2023-02-09T04:06:56.643Z,38.65
2023-02-09T04:07:28.889Z,38.91
2023-02-09T04:08:03.724Z,38.35
2023-02-09T04:08:36.305Z,38.54
2023-02-09T04:09:09.617Z,38.41
2023-02-09T04:09:44.474Z,38.46
2023-02-09T04:10:16.782Z,38.31
2023-02-09T04:10:49.009Z,38.58
2023-02-09T04:11:23.380Z,38.65
2023-02-09T04:11:58.745Z,38.67
2023-02-09T04:12:31.039Z,38.48
2023-02-09T04:13:03.315Z,38.71
2023-02-09T04:13:35.670Z,38.61
2023-02-09T04:14:11.473Z,38.68
2023-02-09T04:14:43.774Z,38.97
2023-02-09T04:15:16.064Z,38.64
2023-02-09T04:15:51.104Z,38.61
2023-02-09T04:16:23.588Z,38.64
2023-02-09T04:16:58.421Z,39.25
2023-02-09T04:17:30.655Z,38.90
2023-02-09T04:18:05.603Z,38.93
2023-02-09T04:18:40.420Z,39.41
2023-02-09T04:19:12.682Z,38.87
2023-02-09T04:19:47.518Z,39.09
2023-02-09T04:20:19.819Z,39.42
2023-02-09T04:20:52.080Z,39.55
2023-02-09T04:21:27.128Z,39.43
2023-02-09T04:21:59.399Z,39.24
2023-02-09T04:22:32.701Z,39.26
2023-02-09T04:23:07.674Z,39.72
2023-02-09T04:23:40.001Z,39.65
2023-02-09T04:24:14.968Z,39.57
2023-02-09T04:24:47.213Z,39.50
2023-02-09T04:25:19.472Z,39.29
2023-02-09T04:25:54.289Z,39.72
2023-02-09T04:26:26.571Z,39.45
2023-02-09T04:26:58.839Z,39.63
2023-02-09T04:27:33.671Z,39.53
2023-02-09T04:28:06.080Z,39.44
2023-02-09T04:28:38.393Z,39.87
2023-02-09T04:29:13.291Z,39.94
2023-02-09T04:29:45.593Z,39.84
2023-02-09T04:30:18.060Z,39.83
2023-02-09T04:30:55.830Z,39.91
2023-02-09T04:31:28.218Z,40.21
2023-02-09T04:32:03.386Z,39.68
2023-02-09T04:32:35.654Z,39.94
2023-02-09T04:33:11.137Z,39.99
2023-02-09T04:33:45.994Z,39.70
2023-02-09T04:34:18.281Z,40.11
2023-02-09T04:34:50.562Z,39.68
2023-02-09T04:35:25.427Z,40.00
2023-02-09T04:35:57.778Z,39.94
2023-02-09T04:36:32.700Z,40.25
2023-02-09T04:37:04.918Z,40.30
2023-02-09T04:37:37.288Z,40.18
2023-02-09T04:38:12.112Z,39.82
2023-02-09T04:38:44.329Z,40.21
2023-02-09T04:39:16.871Z,39.90
2023-02-09T04:39:51.733Z,39.96
2023-02-09T04:40:23.944Z,40.33
2023-02-09T04:40:58.595Z,40.35
2023-02-09T04:41:33.449Z,39.99
2023-02-09T04:42:05.840Z,40.13
2023-02-09T04:42:38.055Z,40.18
2023-02-09T04:43:12.904Z,40.23
2023-02-09T04:43:46.353Z,39.87
2023-02-09T04:44:21.207Z,40.00
2023-02-09T04:44:53.472Z,40.11
2023-02-09T04:45:25.707Z,40.40
2023-02-09T04:46:00.895Z,40.18
2023-02-09T04:46:33.179Z,40.21
2023-02-09T04:47:05.428Z,40.08
2023-02-09T04:47:40.360Z,40.18
2023-02-09T04:48:17.648Z,40.12
2023-02-09T04:48:52.479Z,40.17
2023-02-09T04:49:24.708Z,40.47
2023-02-09T04:49:57.028Z,40.16
2023-02-09T04:50:31.867Z,40.21
2023-02-09T04:51:04.399Z,40.49
2023-02-09T04:51:39.685Z,40.36
2023-02-09T04:52:11.972Z,40.64
2023-02-09T04:52:44.191Z,40.40
2023-02-09T04:53:19.716Z,40.42
2023-02-09T04:53:51.952Z,40.22
2023-02-09T04:54:24.357Z,40.23
2023-02-09T04:54:59.227Z,40.43
2023-02-09T04:55:31.560Z,40.56
2023-02-09T04:56:04.173Z,40.55
2023-02-09T04:56:39.106Z,40.66
2023-02-09T04:57:26.321Z,40.29
2023-02-09T04:58:14.757Z,40.46
2023-02-09T04:59:02.955Z,40.25
2023-02-09T04:59:35.330Z,40.59
2023-02-09T05:00:09.438Z,40.35
2023-02-09T05:00:41.750Z,40.23
2023-02-09T05:01:20.469Z,40.38
2023-02-09T05:01:52.734Z,40.54
2023-02-09T05:02:27.552Z,40.23
2023-02-09T05:02:59.779Z,40.43
2023-02-09T05:03:34.971Z,40.61
2023-02-09T05:04:09.882Z,40.66
2023-02-09T05:04:42.188Z,40.46
2023-02-09T05:05:14.420Z,40.57
2023-02-09T05:05:49.242Z,40.57
2023-02-09T05:06:21.479Z,40.33
2023-02-09T05:06:56.316Z,40.14
2023-02-09T05:07:28.528Z,40.59
2023-02-09T05:08:00.735Z,40.20
2023-02-09T05:08:35.777Z,40.61
2023-02-09T05:09:08.001Z,40.70
2023-02-09T05:09:40.210Z,40.57
2023-02-09T05:10:15.067Z,40.53
2023-02-09T05:10:47.618Z,40.52
2023-02-09T05:11:20.304Z,40.18
2023-02-09T05:11:55.126Z,40.30
2023-02-09T05:12:27.339Z,40.33
2023-02-09T05:12:59.553Z,40.71
2023-02-09T05:13:34.378Z,40.59
2023-02-09T05:14:06.755Z,40.59
2023-02-09T05:14:38.969Z,40.33
2023-02-09T05:15:13.871Z,40.53
2023-02-09T05:15:46.226Z,40.54
2023-02-09T05:16:18.545Z,40.34
2023-02-09T05:16:54.073Z,40.23
2023-02-09T05:17:26.342Z,40.35
2023-02-09T05:17:58.551Z,40.42
2023-02-09T05:18:30.770Z,40.34
2023-02-09T05:19:09.268Z,40.44
2023-02-09T05:19:41.536Z,40.57
2023-02-09T05:20:13.795Z,40.53
2023-02-09T05:20:47.473Z,40.54
2023-02-09T05:21:22.490Z,40.59
2023-02-09T05:21:54.704Z,40.73
2023-02-09T05:22:27.022Z,40.38
2023-02-09T05:23:01.837Z,40.54
2023-02-09T05:23:34.080Z,40.55
2023-02-09T05:24:09.758Z,40.31
2023-02-09T05:24:41.983Z,40.73
2023-02-09T05:25:14.233Z,40.52
2023-02-09T05:25:49.142Z,40.28
2023-02-09T05:26:21.384Z,40.46
2023-02-09T05:26:53.601Z,40.38
2023-02-09T05:27:28.450Z,40.86
2023-02-09T05:28:00.781Z,40.62
2023-02-09T05:28:33.025Z,40.71
2023-02-09T05:29:07.910Z,40.61
2023-02-09T05:29:40.123Z,40.50
2023-02-09T05:30:13.089Z,40.79
2023-02-09T05:30:48.218Z,40.39
2023-02-09T05:31:20.854Z,40.42
2023-02-09T05:31:53.193Z,40.52
2023-02-09T05:32:28.192Z,40.33
2023-02-09T05:33:00.586Z,40.25
2023-02-09T05:33:35.428Z,40.47
2023-02-09T05:34:10.332Z,40.59
2023-02-09T05:34:42.561Z,40.49
2023-02-09T05:35:17.661Z,40.53
2023-02-09T05:35:50.893Z,40.46
2023-02-09T05:36:23.128Z,40.82
2023-02-09T05:36:57.945Z,40.69
2023-02-09T05:37:30.169Z,40.47
2023-02-09T05:38:02.385Z,40.81
2023-02-09T05:38:37.287Z,40.69
2023-02-09T05:39:09.502Z,40.73
2023-02-09T05:39:41.751Z,40.42
2023-02-09T05:40:16.632Z,40.52
2023-02-09T05:40:49.242Z,40.58
2023-02-09T05:41:36.456Z,40.88
2023-02-09T05:42:18.311Z,40.28
2023-02-09T05:42:50.560Z,40.76
2023-02-09T05:43:22.880Z,40.42
2023-02-09T05:43:55.127Z,40.54
2023-02-09T05:44:29.934Z,40.65
2023-02-09T05:45:02.180Z,40.92
2023-02-09T05:45:34.506Z,40.90
2023-02-09T05:46:09.330Z,40.85
2023-02-09T05:46:41.647Z,40.83
2023-02-09T05:47:15.844Z,40.65
2023-02-09T05:47:48.076Z,40.48
2023-02-09T05:48:22.882Z,40.90
2023-02-09T05:48:55.138Z,40.38
2023-02-09T05:49:30.003Z,40.43
2023-02-09T05:50:04.875Z,39.46
2023-02-09T05:50:37.145Z,40.60
2023-02-09T05:51:12.459Z,40.71
2023-02-09T05:51:47.301Z,40.64
2023-02-09T05:52:20.251Z,40.76
2023-02-09T05:52:55.096Z,40.77
2023-02-09T05:53:27.336Z,41.01
2023-02-09T05:53:59.614Z,41.12
2023-02-09T05:54:34.497Z,40.69
2023-02-09T05:55:07.035Z,40.77
2023-02-09T05:55:39.244Z,40.96
2023-02-09T05:56:14.606Z,40.69
2023-02-09T05:56:47.322Z,40.67
2023-02-09T05:57:22.253Z,41.00
2023-02-09T05:57:54.610Z,40.91
2023-02-09T05:58:26.899Z,40.55
2023-02-09T05:59:03.477Z,41.00
2023-02-09T05:59:36.733Z,40.94
2023-02-09T06:00:13.714Z,40.58
2023-02-09T06:00:46.319Z,39.88
2023-02-09T06:01:18.790Z,40.35
2023-02-09T06:01:53.940Z,41.14
2023-02-09T06:02:26.236Z,41.13
2023-02-09T06:03:01.400Z,40.95
2023-02-09T06:03:33.713Z,40.91
2023-02-09T06:04:06.772Z,40.93
2023-02-09T06:04:44.212Z,41.15
2023-02-09T06:05:16.728Z,40.79
2023-02-09T06:05:51.560Z,41.08
2023-02-09T06:06:23.844Z,41.05
2023-02-09T06:06:56.584Z,41.02
2023-02-09T06:07:31.444Z,40.93
2023-02-09T06:08:03.974Z,40.83
2023-02-09T06:08:36.206Z,41.00
2023-02-09T06:09:11.023Z,40.88
2023-02-09T06:09:43.231Z,40.54
2023-02-09T06:10:15.555Z,40.70
2023-02-09T06:10:50.380Z,41.04
2023-02-09T06:11:22.608Z,40.68
2023-02-09T06:11:54.824Z,40.71
2023-02-09T06:12:29.724Z,40.71
2023-02-09T06:13:01.944Z,40.69
2023-02-09T06:13:34.171Z,40.64
2023-02-09T06:14:09.108Z,40.56
2023-02-09T06:14:41.341Z,40.79
2023-02-09T06:15:16.316Z,41.01
2023-02-09T06:15:51.309Z,40.74
2023-02-09T06:16:23.767Z,40.96
2023-02-09T06:16:55.983Z,40.57
2023-02-09T06:17:30.865Z,40.67
2023-02-09T06:18:03.111Z,40.59
2023-02-09T06:18:35.338Z,40.63
2023-02-09T06:19:10.195Z,40.74
2023-02-09T06:19:45.015Z,40.82
2023-02-09T06:20:17.594Z,41.00
2023-02-09T06:20:52.459Z,40.77
2023-02-09T06:21:27.595Z,40.61
2023-02-09T06:22:02.432Z,40.69
2023-02-09T06:22:34.664Z,40.69
2023-02-09T06:23:06.948Z,40.94
2023-02-09T06:23:41.947Z,40.53
2023-02-09T06:24:15.572Z,40.52
2023-02-09T06:24:50.445Z,40.90
2023-02-09T06:25:22.822Z,40.49
2023-02-09T06:25:55.056Z,40.96
2023-02-09T06:26:29.876Z,40.41
2023-02-09T06:27:02.088Z,40.94
2023-02-09T06:27:36.962Z,40.80
2023-02-09T06:28:09.329Z,41.38
2023-02-09T06:28:41.988Z,41.88
2023-02-09T06:29:16.829Z,42.55
2023-02-09T06:29:49.098Z,42.55
2023-02-09T06:30:21.515Z,42.00
2023-02-09T06:30:56.958Z,42.02
2023-02-09T06:31:29.460Z,41.84
2023-02-09T06:32:02.052Z,41.34
2023-02-09T06:32:36.935Z,41.27
2023-02-09T06:33:09.149Z,41.12
2023-02-09T06:33:41.385Z,41.07
2023-02-09T06:34:16.407Z,41.25
2023-02-09T06:34:51.252Z,40.79
2023-02-09T06:35:23.548Z,40.54
2023-02-09T06:35:58.524Z,40.39
2023-02-09T06:36:30.857Z,40.13
2023-02-09T06:37:05.687Z,40.08
2023-02-09T06:37:37.963Z,39.96
2023-02-09T06:38:10.300Z,39.76
2023-02-09T06:38:45.148Z,40.00
2023-02-09T06:39:17.392Z,39.58
2023-02-09T06:39:52.221Z,39.54
2023-02-09T06:40:24.488Z,39.44
2023-02-09T06:40:56.713Z,38.99
2023-02-09T06:41:31.527Z,38.83
2023-02-09T06:42:04.057Z,38.73
2023-02-09T06:42:44.211Z,38.73
2023-02-09T06:43:19.801Z,38.43
2023-02-09T06:43:52.035Z,38.59
2023-02-09T06:44:26.864Z,38.14
2023-02-09T06:44:59.679Z,37.93
2023-02-09T06:45:31.896Z,38.14
2023-02-09T06:46:11.243Z,38.06
2023-02-09T06:46:43.499Z,37.73
2023-02-09T06:47:18.348Z,37.78
2023-02-09T06:47:50.628Z,37.86
2023-02-09T06:48:23.058Z,37.48
2023-02-09T06:48:59.545Z,37.49
2023-02-09T06:49:32.157Z,37.72
2023-02-09T06:50:10.285Z,37.67
2023-02-09T06:50:42.495Z,37.38
2023-02-09T06:51:18.247Z,37.44
2023-02-09T06:51:50.592Z,37.20
2023-02-09T06:52:22.936Z,37.46
2023-02-09T06:52:57.749Z,37.22
2023-02-09T06:53:30.015Z,37.05
2023-02-09T06:54:02.280Z,37.30
2023-02-09T06:54:37.208Z,36.96
2023-02-09T06:55:09.984Z,37.27
2023-02-09T06:55:42.216Z,36.94
2023-02-09T06:56:17.192Z,37.04
2023-02-09T06:56:49.427Z,36.59
2023-02-09T06:57:21.656Z,36.91
2023-02-09T06:57:57.836Z,36.63
2023-02-09T06:58:30.124Z,36.76
2023-02-09T06:59:02.346Z,36.52
2023-02-09T06:59:37.196Z,36.84
2023-02-09T07:00:11.966Z,36.62
2023-02-09T07:00:44.495Z,36.52
2023-02-09T07:01:19.617Z,36.77
2023-02-09T07:01:54.591Z,36.50
2023-02-09T07:02:29.990Z,36.81
2023-02-09T07:03:02.304Z,36.30
2023-02-09T07:03:37.162Z,36.59
2023-02-09T07:04:09.409Z,36.70
2023-02-09T07:04:41.684Z,36.55
2023-02-09T07:05:20.033Z,36.32
2023-02-09T07:05:52.256Z,36.25
2023-02-09T07:06:27.195Z,36.23
2023-02-09T07:06:59.407Z,36.70
2023-02-09T07:07:34.230Z,36.30
2023-02-09T07:08:06.974Z,36.56
2023-02-09T07:08:42.446Z,36.25
2023-02-09T07:09:14.673Z,36.22
2023-02-09T07:09:49.525Z,36.59
2023-02-09T07:10:21.964Z,36.21
2023-02-09T07:10:54.207Z,36.62
2023-02-09T07:11:29.083Z,36.44
2023-02-09T07:12:01.306Z,36.29
2023-02-09T07:12:33.632Z,36.21
2023-02-09T07:13:08.490Z,36.11
2023-02-09T07:13:46.933Z,36.49
2023-02-09T07:14:21.885Z,36.43
2023-02-09T07:14:54.159Z,36.13
2023-02-09T07:15:26.378Z,36.59
2023-02-09T07:16:01.977Z,36.44
2023-02-09T07:16:34.234Z,36.52
2023-02-09T07:17:09.065Z,36.12
2023-02-09T07:17:42.418Z,36.36
2023-02-09T07:18:17.268Z,36.49
2023-02-09T07:18:49.499Z,36.18
2023-02-09T07:19:27.188Z,36.05
2023-02-09T07:19:59.517Z,36.26
2023-02-09T07:20:34.390Z,36.15
2023-02-09T07:21:11.569Z,36.49
2023-02-09T07:21:43.788Z,36.05
2023-02-09T07:22:16.255Z,35.13
2023-02-09T07:22:51.105Z,35.12
2023-02-09T07:23:23.505Z,35.40
2023-02-09T07:23:58.341Z,35.26
2023-02-09T07:24:30.559Z,35.50
2023-02-09T07:25:02.846Z,35.94
2023-02-09T07:25:37.660Z,36.13
2023-02-09T07:26:15.352Z,36.08
2023-02-09T07:26:50.275Z,36.20
2023-02-09T07:27:22.586Z,36.83
2023-02-09T07:27:54.817Z,36.62
2023-02-09T07:28:29.762Z,36.79
2023-02-09T07:29:02.621Z,37.15
2023-02-09T07:29:34.867Z,37.04
2023-02-09T07:30:10.829Z,37.58
2023-02-09T07:30:43.230Z,37.64